Annapolis, Missouri
Current Conditions -  °F | °C
As of 9:35 PM on Friday 24 Oct 2014 (Local Time) from KFAM Reporting Station
Broken Clouds Broken Clouds  
Wind Chill: 61°   Ceiling: 5000
Heat Index: 61°   Visibility: 10mi
Dew Point: 52°   Wind: 3mph
Humidity: 72%   Direction: 170°S
Pressure: 30.07"   Gusts: NA
Location:  37.36°N, 90.7°W
Report Text: KFAM 250235Z AUTO 17003KT 10SM BKN050 16/11 A3007 RMK AO1
Loading
Personal Weather Stations






























Interactive Weather Map
Tropical Storm Tracking
New forecast layout! Learn more

10-Day Weather Forecast

Advertisements
Track Severe Weather on mobile